createdAt,value
2023-04-25T00:02:12.476Z,6.83
2023-04-25T00:04:43.345Z,6.68
2023-04-25T00:07:13.557Z,6.68
2023-04-25T00:09:44.464Z,6.68
2023-04-25T00:12:14.031Z,6.47
2023-04-25T00:14:43.844Z,6.53
2023-04-25T00:17:13.714Z,6.70
2023-04-25T00:19:45.674Z,6.66
2023-04-25T00:22:15.339Z,6.80
2023-04-25T00:24:45.294Z,6.71
2023-04-25T00:27:15.291Z,6.84
2023-04-25T00:29:45.097Z,6.74
2023-04-25T00:32:14.995Z,6.75
2023-04-25T00:34:44.878Z,6.83
2023-04-25T00:37:15.011Z,6.95
2023-04-25T00:39:44.849Z,7.10
2023-04-25T00:42:15.973Z,6.86
2023-04-25T00:44:46.917Z,6.91
2023-04-25T00:47:17.844Z,6.94
2023-04-25T00:49:47.800Z,6.80
2023-04-25T00:52:17.331Z,6.80
2023-04-25T00:54:47.580Z,6.97
2023-04-25T00:57:17.843Z,7.01
2023-04-25T00:59:48.423Z,6.74
2023-04-25T01:02:18.166Z,6.83
2023-04-25T01:04:48.739Z,6.94
2023-04-25T01:07:18.617Z,6.74
2023-04-25T01:09:49.052Z,6.83
2023-04-25T01:12:18.743Z,6.61
2023-04-25T01:14:48.697Z,6.67
2023-04-25T01:17:20.795Z,6.75
2023-04-25T01:19:51.760Z,6.54
2023-04-25T01:22:21.764Z,6.44
2023-04-25T01:24:51.925Z,6.36
2023-04-25T01:27:23.750Z,6.49
2023-04-25T01:29:53.957Z,6.46
2023-04-25T01:32:25.977Z,6.33
2023-04-25T01:34:57.673Z,6.52
2023-04-25T01:37:28.994Z,6.52
2023-04-25T01:39:59.036Z,6.58
2023-04-25T01:42:28.845Z,6.43
2023-04-25T01:44:58.954Z,6.46
2023-04-25T01:47:31.808Z,6.55
2023-04-25T01:50:01.682Z,6.66
2023-04-25T01:52:32.070Z,6.61
2023-04-25T01:55:04.533Z,6.39
2023-04-25T01:57:36.507Z,6.17
2023-04-25T02:00:10.131Z,6.17
2023-04-25T02:02:42.239Z,6.15
2023-04-25T02:05:14.019Z,6.02
2023-04-25T02:07:45.656Z,5.88
2023-04-25T02:10:15.908Z,6.08
2023-04-25T02:12:47.141Z,6.08
2023-04-25T02:15:18.442Z,6.12
2023-04-25T02:17:49.957Z,6.09
2023-04-25T02:20:20.942Z,6.16
2023-04-25T02:22:50.961Z,5.88
2023-04-25T02:25:21.703Z,5.77
2023-04-25T02:27:52.381Z,5.83
2023-04-25T02:30:22.257Z,5.60
2023-04-25T02:32:52.159Z,5.63
2023-04-25T02:35:21.829Z,5.47
2023-04-25T02:37:51.734Z,5.67
2023-04-25T02:40:21.398Z,5.48
2023-04-25T02:42:51.196Z,5.61
2023-04-25T02:45:21.513Z,5.74
2023-04-25T02:47:52.647Z,5.82
2023-04-25T02:50:22.817Z,5.73
2023-04-25T02:52:52.651Z,5.67
2023-04-25T02:55:26.253Z,5.54
2023-04-25T02:57:56.420Z,5.71
2023-04-25T03:00:31.236Z,5.78
2023-04-25T03:03:01.377Z,5.75
2023-04-25T03:05:31.379Z,5.79
2023-04-25T03:08:02.154Z,5.83
2023-04-25T03:10:32.249Z,5.76
2023-04-25T03:13:03.840Z,5.61
2023-04-25T03:15:33.662Z,5.47
2023-04-25T03:18:06.731Z,5.46
2023-04-25T03:20:36.620Z,5.50
2023-04-25T03:23:06.304Z,5.55
2023-04-25T03:25:36.446Z,5.58
2023-04-25T03:28:08.052Z,5.54
2023-04-25T03:30:38.217Z,5.37
2023-04-25T03:33:08.162Z,5.51
2023-04-25T03:35:37.688Z,5.46
2023-04-25T03:38:09.838Z,5.41
2023-04-25T03:40:41.362Z,5.48
2023-04-25T03:43:12.864Z,5.40
2023-04-25T03:45:44.615Z,5.40
2023-04-25T03:48:14.287Z,5.46
2023-04-25T03:50:44.171Z,5.53
2023-04-25T03:53:14.079Z,5.44
2023-04-25T03:55:45.706Z,5.61
2023-04-25T03:58:15.835Z,5.66
2023-04-25T04:00:45.847Z,5.47
2023-04-25T04:03:15.937Z,5.64
2023-04-25T04:05:47.554Z,5.81
2023-04-25T04:08:17.533Z,5.83
2023-04-25T04:10:47.336Z,5.56
2023-04-25T04:13:17.181Z,5.75
2023-04-25T04:15:47.647Z,5.66
2023-04-25T04:18:18.206Z,5.77
2023-04-25T04:20:48.131Z,5.65
2023-04-25T04:23:18.034Z,5.70
2023-04-25T04:25:48.912Z,5.68
2023-04-25T04:28:32.303Z,5.76
2023-04-25T04:31:06.836Z,5.67
2023-04-25T04:33:37.806Z,5.71
2023-04-25T04:36:10.816Z,5.66
2023-04-25T04:38:42.090Z,5.63
2023-04-25T04:41:13.695Z,5.71
2023-04-25T04:43:45.687Z,5.79
2023-04-25T04:46:26.512Z,5.80
2023-04-25T04:48:58.064Z,5.81
2023-04-25T04:51:32.754Z,5.88
2023-04-25T04:54:06.526Z,6.04
2023-04-25T04:56:40.470Z,5.94
2023-04-25T04:59:20.904Z,5.86
2023-04-25T05:02:03.965Z,6.08
2023-04-25T05:04:47.895Z,5.92
2023-04-25T05:07:22.295Z,6.09
2023-04-25T05:10:12.076Z,6.03
2023-04-25T05:12:49.357Z,5.87
2023-04-25T05:15:36.892Z,6.07
2023-04-25T05:18:12.109Z,6.07
2023-04-25T05:20:46.355Z,6.36
2023-04-25T05:23:20.702Z,6.30
2023-04-25T05:26:04.327Z,6.32
2023-04-25T05:28:35.899Z,6.46
2023-04-25T05:31:25.445Z,6.67
2023-04-25T05:33:57.063Z,6.74
2023-04-25T05:36:29.041Z,6.67
2023-04-25T05:38:59.021Z,6.92
2023-04-25T05:41:45.976Z,6.98
2023-04-25T05:44:35.662Z,7.00
2023-04-25T05:47:18.995Z,7.07
2023-04-25T05:49:59.331Z,7.08
2023-04-25T05:52:30.877Z,7.47
2023-04-25T05:55:08.592Z,7.55
2023-04-25T05:57:40.885Z,7.57
2023-04-25T06:02:55.576Z,7.48
2023-04-25T06:05:26.350Z,7.82
2023-04-25T06:07:56.217Z,7.49
2023-04-25T06:10:26.133Z,7.84
2023-04-25T06:12:56.013Z,7.63
2023-04-25T06:15:28.425Z,7.67
2023-04-25T06:17:57.924Z,7.67
2023-04-25T06:20:31.057Z,8.00
2023-04-25T06:23:01.654Z,8.06
2023-04-25T06:25:42.277Z,8.20
2023-04-25T06:28:12.224Z,8.28
2023-04-25T06:30:42.283Z,8.60
2023-04-25T06:33:13.958Z,8.63
2023-04-25T06:35:44.048Z,8.98
2023-04-25T06:38:15.874Z,9.05
2023-04-25T06:40:47.479Z,9.02
2023-04-25T06:43:17.716Z,9.13
2023-04-25T06:45:55.186Z,9.16
2023-04-25T06:48:25.433Z,9.39
2023-04-25T06:50:57.419Z,9.89
2023-04-25T06:53:27.356Z,9.74
2023-04-25T06:55:58.917Z,9.70
2023-04-25T06:58:30.808Z,9.79
2023-04-25T07:01:14.014Z,9.72
2023-04-25T07:03:44.081Z,9.70
2023-04-25T07:06:15.679Z,9.70
2023-04-25T07:08:45.590Z,9.95
2023-04-25T07:11:15.541Z,10.01
2023-04-25T07:13:46.093Z,10.01
2023-04-25T07:16:16.226Z,10.59
2023-04-25T07:18:46.258Z,10.46
2023-04-25T07:21:16.459Z,10.14
2023-04-25T07:23:47.320Z,10.07
2023-04-25T07:26:19.032Z,10.16
2023-04-25T07:29:06.867Z,10.22
2023-04-25T07:31:36.935Z,9.99
2023-04-25T07:34:06.807Z,10.45
2023-04-25T07:36:37.346Z,10.50
2023-04-25T07:39:07.546Z,10.41
2023-04-25T07:41:37.372Z,10.76
2023-04-25T07:44:09.389Z,10.61
2023-04-25T07:46:39.186Z,10.69
2023-04-25T07:49:09.638Z,10.72
2023-04-25T07:51:39.821Z,11.19
2023-04-25T07:54:16.610Z,11.24
2023-04-25T07:56:52.501Z,11.01
2023-04-25T07:59:19.354Z,11.00
2023-04-25T08:01:49.727Z,11.15
2023-04-25T08:04:20.168Z,11.62
2023-04-25T08:06:53.331Z,11.75
2023-04-25T08:09:25.103Z,12.45
2023-04-25T08:11:55.434Z,12.84
2023-04-25T08:14:26.961Z,12.97
2023-04-25T08:16:57.149Z,13.07
2023-04-25T08:19:27.417Z,12.84
2023-04-25T08:21:57.351Z,13.17
2023-04-25T08:24:29.303Z,12.83
2023-04-25T08:26:59.906Z,13.31
2023-04-25T08:29:30.345Z,13.25
2023-04-25T08:31:59.968Z,12.95
2023-04-25T08:34:30.029Z,13.01
2023-04-25T08:37:01.327Z,13.27
2023-04-25T08:39:32.823Z,13.19
2023-04-25T08:42:09.003Z,13.23
2023-04-25T08:44:39.640Z,13.23
2023-04-25T08:47:09.368Z,13.75
2023-04-25T08:49:48.190Z,13.40
2023-04-25T08:52:21.545Z,13.40
2023-04-25T08:54:53.038Z,14.10
2023-04-25T08:57:24.468Z,13.56
2023-04-25T08:59:56.298Z,13.18
2023-04-25T09:02:27.200Z,12.78
2023-04-25T09:04:58.446Z,12.65
2023-04-25T09:07:29.452Z,12.54
2023-04-25T09:10:00.945Z,12.54
2023-04-25T09:12:32.249Z,12.38
2023-04-25T09:15:10.354Z,12.67
2023-04-25T09:18:00.471Z,12.61
2023-04-25T09:20:35.324Z,12.61
2023-04-25T09:23:08.025Z,12.21
2023-04-25T09:25:40.570Z,12.79
2023-04-25T09:28:14.024Z,13.24
2023-04-25T09:30:44.209Z,13.32
2023-04-25T09:33:28.793Z,13.37
2023-04-25T09:36:08.202Z,12.77
2023-04-25T09:38:51.607Z,12.35
2023-04-25T09:41:26.922Z,12.14
2023-04-25T09:44:02.469Z,12.14
2023-04-25T09:46:40.751Z,12.37
2023-04-25T09:49:12.270Z,12.42
2023-04-25T09:51:59.144Z,12.07
2023-04-25T09:54:30.457Z,11.91
2023-04-25T09:57:05.085Z,11.97
2023-04-25T09:59:37.676Z,12.14
2023-04-25T10:02:10.370Z,11.79
2023-04-25T10:04:41.345Z,12.04
2023-04-25T10:07:16.264Z,11.72
2023-04-25T10:09:51.273Z,11.52
2023-04-25T10:12:21.151Z,11.75
2023-04-25T10:14:50.969Z,11.42
2023-04-25T10:17:22.488Z,11.63
2023-04-25T10:19:54.276Z,11.43
2023-04-25T10:22:29.929Z,11.82
2023-04-25T10:25:00.385Z,11.42
2023-04-25T10:27:30.835Z,12.09
2023-04-25T10:30:11.140Z,13.04
2023-04-25T10:32:41.031Z,13.74
2023-04-25T10:35:21.345Z,13.58
2023-04-25T10:38:01.528Z,13.76
2023-04-25T10:40:32.553Z,13.99
2023-04-25T10:43:39.424Z,14.54
2023-04-25T10:46:25.855Z,13.63
2023-04-25T10:48:57.690Z,14.04
2023-04-25T10:51:34.553Z,13.40
2023-04-25T10:54:09.210Z,13.74
2023-04-25T10:56:42.108Z,13.34
2023-04-25T10:59:17.385Z,13.73
2023-04-25T11:01:50.316Z,12.90
2023-04-25T11:04:25.891Z,12.90
2023-04-25T11:07:06.372Z,12.71
2023-04-25T11:09:35.745Z,12.54
2023-04-25T11:12:05.956Z,12.03
2023-04-25T11:14:36.147Z,12.07
2023-04-25T11:17:07.111Z,12.29
2023-04-25T11:19:37.239Z,12.59
2023-04-25T11:22:08.672Z,13.62
2023-04-25T11:24:39.109Z,13.63
2023-04-25T11:27:09.204Z,13.63
2023-04-25T11:29:39.304Z,13.46
2023-04-25T11:32:09.663Z,13.46
2023-04-25T11:34:39.809Z,13.76
2023-04-25T11:37:09.695Z,14.01
2023-04-25T11:39:40.084Z,13.40
2023-04-25T11:42:13.805Z,14.03
2023-04-25T11:44:42.620Z,13.32
2023-04-25T11:47:12.420Z,13.73
2023-04-25T11:49:42.505Z,13.95
2023-04-25T11:52:12.846Z,13.92
2023-04-25T11:54:43.224Z,14.13
2023-04-25T11:57:14.066Z,13.87
2023-04-25T11:59:44.173Z,13.55
2023-04-25T12:02:17.385Z,13.55
2023-04-25T12:04:47.915Z,13.98
2023-04-25T12:07:19.738Z,14.29
2023-04-25T12:09:53.178Z,14.23
2023-04-25T12:12:22.979Z,14.23
2023-04-25T12:14:53.074Z,14.65
2023-04-25T12:17:24.452Z,14.65
2023-04-25T12:19:54.267Z,14.65
2023-04-25T12:22:25.862Z,15.33
2023-04-25T12:24:57.875Z,14.61
2023-04-25T12:27:28.465Z,15.20
2023-04-25T12:29:59.354Z,14.57
2023-04-25T12:32:29.509Z,14.57
2023-04-25T12:34:59.370Z,15.36
2023-04-25T12:37:31.827Z,14.57
2023-04-25T12:40:01.527Z,14.16
2023-04-25T12:42:31.791Z,13.68
2023-04-25T12:45:01.573Z,13.42
2023-04-25T12:47:31.338Z,13.26
2023-04-25T12:50:01.490Z,12.70
2023-04-25T12:52:30.999Z,13.01
2023-04-25T12:55:01.073Z,13.52
2023-04-25T12:57:31.255Z,13.62
2023-04-25T13:00:01.487Z,12.83
2023-04-25T13:02:31.742Z,12.83
2023-04-25T13:05:01.517Z,12.97
2023-04-25T13:07:33.502Z,13.50
2023-04-25T13:10:04.090Z,14.13
2023-04-25T13:12:34.171Z,14.29
2023-04-25T13:15:04.512Z,14.12
2023-04-25T13:17:34.680Z,13.69
2023-04-25T13:20:06.754Z,13.99
2023-04-25T13:22:40.387Z,15.55
2023-04-25T13:25:10.692Z,15.55
2023-04-25T13:27:41.548Z,14.65
2023-04-25T13:30:13.124Z,13.40
2023-04-25T13:32:43.059Z,13.01
2023-04-25T13:35:14.834Z,12.68
2023-04-25T13:37:44.671Z,12.96
2023-04-25T13:40:15.541Z,13.16
2023-04-25T13:42:46.305Z,12.65
2023-04-25T13:45:16.213Z,12.99
2023-04-25T13:47:46.700Z,13.84
2023-04-25T13:50:18.456Z,14.13
2023-04-25T13:52:48.702Z,14.30
2023-04-25T13:55:18.393Z,14.02
2023-04-25T13:57:48.004Z,13.23
2023-04-25T14:00:18.159Z,12.92
2023-04-25T14:02:51.364Z,12.85
2023-04-25T14:05:21.667Z,12.92
2023-04-25T14:07:52.121Z,12.85
2023-04-25T14:10:22.309Z,12.90
2023-04-25T14:12:52.606Z,12.64
2023-04-25T14:15:22.338Z,12.64
2023-04-25T14:17:52.468Z,12.74
2023-04-25T14:20:22.360Z,13.23
2023-04-25T14:22:53.035Z,13.11
2023-04-25T14:25:23.919Z,13.82
2023-04-25T14:27:54.154Z,14.28
2023-04-25T14:30:23.928Z,14.59
2023-04-25T14:32:54.296Z,14.89
2023-04-25T14:35:24.783Z,14.52
2023-04-25T14:37:55.923Z,14.01
2023-04-25T14:40:25.973Z,14.04
2023-04-25T14:42:55.913Z,14.04
2023-04-25T14:45:25.818Z,14.54
2023-04-25T14:47:56.911Z,14.54
2023-04-25T14:50:26.794Z,13.81
2023-04-25T14:52:58.541Z,13.70
2023-04-25T14:55:28.895Z,13.14
2023-04-25T14:57:59.039Z,12.96
2023-04-25T15:00:28.905Z,12.96
2023-04-25T15:03:00.122Z,13.05
2023-04-25T15:05:30.226Z,13.30
2023-04-25T15:08:01.273Z,13.40
2023-04-25T15:10:31.186Z,13.80
2023-04-25T15:13:01.679Z,13.37
2023-04-25T15:15:31.617Z,13.10
2023-04-25T15:18:01.934Z,12.54
2023-04-25T15:20:32.338Z,12.54
2023-04-25T15:23:04.195Z,12.18
2023-04-25T15:25:33.986Z,12.13
2023-04-25T15:28:04.106Z,12.13
2023-04-25T15:30:33.612Z,12.35
2023-04-25T15:33:03.856Z,12.48
2023-04-25T15:35:36.391Z,12.48
2023-04-25T15:38:06.855Z,12.45
2023-04-25T15:40:36.638Z,12.44
2023-04-25T15:43:07.140Z,12.44
2023-04-25T15:45:37.870Z,12.30
2023-04-25T15:48:08.589Z,12.47
2023-04-25T15:50:38.474Z,12.47
2023-04-25T15:53:08.624Z,12.03
2023-04-25T15:55:38.461Z,11.92
2023-04-25T15:58:10.064Z,11.81
2023-04-25T16:00:40.395Z,12.39
2023-04-25T16:03:11.451Z,12.39
2023-04-25T16:05:41.686Z,12.59
2023-04-25T16:08:11.879Z,12.54
2023-04-25T16:10:42.167Z,12.05
2023-04-25T16:13:12.714Z,11.89
2023-04-25T16:15:42.536Z,12.33
2023-04-25T16:18:13.880Z,13.04
2023-04-25T16:20:43.704Z,13.14
2023-04-25T16:23:13.514Z,13.14
2023-04-25T16:25:44.415Z,12.91
2023-04-25T16:28:16.503Z,12.42
2023-04-25T16:30:46.498Z,12.15
2023-04-25T16:33:16.709Z,11.58
2023-04-25T16:35:46.779Z,11.49
2023-04-25T16:38:16.625Z,11.34
2023-04-25T16:40:46.451Z,11.33
2023-04-25T16:43:18.185Z,11.19
2023-04-25T16:45:47.804Z,11.19
2023-04-25T16:48:19.127Z,10.77
2023-04-25T16:50:48.902Z,10.92
2023-04-25T16:53:18.719Z,10.74
2023-04-25T16:55:48.879Z,10.78
2023-04-25T16:58:20.489Z,10.58
2023-04-25T17:00:50.148Z,10.73
2023-04-25T17:03:20.382Z,10.71
2023-04-25T17:05:54.014Z,10.39
2023-04-25T17:08:23.590Z,10.55
2023-04-25T17:10:53.938Z,10.83
2023-04-25T17:13:31.185Z,11.10
2023-04-25T17:15:55.613Z,11.18
2023-04-25T17:18:26.033Z,11.44
2023-04-25T17:20:56.719Z,11.80
2023-04-25T17:23:26.917Z,11.81
2023-04-25T17:25:56.789Z,11.54
2023-04-25T17:28:26.630Z,11.39
2023-04-25T17:30:57.708Z,11.11
2023-04-25T17:33:28.609Z,11.64
2023-04-25T17:35:58.844Z,11.64
2023-04-25T17:38:28.917Z,11.94
2023-04-25T17:40:59.478Z,11.94
2023-04-25T17:43:29.429Z,12.37
2023-04-25T17:45:59.545Z,11.29
2023-04-25T17:48:31.629Z,10.86
2023-04-25T17:51:03.629Z,11.00
2023-04-25T17:53:33.813Z,10.86
2023-04-25T17:56:05.270Z,10.75
2023-04-25T17:58:36.248Z,10.72
2023-04-25T18:01:06.181Z,10.55
2023-04-25T18:03:38.034Z,10.71
2023-04-25T18:06:07.953Z,10.69
2023-04-25T18:08:38.052Z,10.68
2023-04-25T18:11:07.940Z,10.36
2023-04-25T18:13:38.986Z,10.61
2023-04-25T18:16:09.176Z,10.28
2023-04-25T18:18:40.922Z,10.28
2023-04-25T18:21:11.781Z,10.19
2023-04-25T18:23:41.936Z,10.35
2023-04-25T18:26:12.148Z,10.35
2023-04-25T18:28:42.215Z,9.93
2023-04-25T18:31:12.200Z,9.93
2023-04-25T18:33:42.461Z,9.88
2023-04-25T18:36:12.339Z,9.88
2023-04-25T18:38:42.447Z,9.86
2023-04-25T18:41:34.390Z,9.96
2023-04-25T18:43:44.806Z,9.88
2023-04-25T18:46:14.685Z,9.90
2023-04-25T18:48:45.372Z,9.83
2023-04-25T18:51:15.235Z,9.77
2023-04-25T18:53:46.176Z,9.69
2023-04-25T18:56:16.043Z,9.69
2023-04-25T18:58:46.621Z,9.41
2023-04-25T19:01:16.473Z,9.34
2023-04-25T19:03:48.586Z,9.42
2023-04-25T19:06:18.441Z,9.33
2023-04-25T19:08:50.689Z,9.44
2023-04-25T19:11:21.577Z,9.32
2023-04-25T19:13:52.307Z,9.34
2023-04-25T19:16:22.233Z,9.22
2023-04-25T19:18:54.280Z,9.28
2023-04-25T19:21:24.759Z,9.21
2023-04-25T19:23:55.165Z,9.21
2023-04-25T19:26:25.523Z,8.88
2023-04-25T19:29:11.383Z,9.01
2023-04-25T19:31:43.315Z,8.88
2023-04-25T19:34:13.783Z,8.49
2023-04-25T19:36:44.185Z,8.49
2023-04-25T19:39:14.480Z,8.27
2023-04-25T19:41:44.402Z,8.53
2023-04-25T19:44:14.605Z,8.45
2023-04-25T19:46:45.750Z,8.43
2023-04-25T19:49:16.260Z,8.56
2023-04-25T19:51:46.294Z,8.42
2023-04-25T19:54:16.407Z,8.42
2023-04-25T19:56:46.213Z,8.23
2023-04-25T19:59:16.410Z,8.16
2023-04-25T20:01:46.244Z,8.12
2023-04-25T20:04:18.449Z,8.19
2023-04-25T20:06:48.358Z,7.87
2023-04-25T20:09:18.256Z,7.86
2023-04-25T20:11:48.207Z,7.97
2023-04-25T20:14:19.031Z,7.96
2023-04-25T20:16:48.971Z,7.84
2023-04-25T20:19:19.529Z,7.90
2023-04-25T20:21:49.448Z,7.90
2023-04-25T20:24:21.049Z,7.78
2023-04-25T20:26:51.099Z,7.77
2023-04-25T20:29:20.898Z,7.81
2023-04-25T20:31:50.894Z,7.70
2023-04-25T20:34:21.999Z,7.67
2023-04-25T20:36:52.819Z,7.56
2023-04-25T20:39:22.787Z,7.49
2023-04-25T20:41:53.351Z,7.47
2023-04-25T20:44:23.661Z,7.46
2023-04-25T20:46:53.622Z,7.34
2023-04-25T20:49:23.426Z,7.33
2023-04-25T20:51:53.761Z,7.53
2023-04-25T20:54:24.113Z,7.36
2023-04-25T20:56:53.941Z,7.34
2023-04-25T20:59:23.911Z,7.30
2023-04-25T21:01:57.227Z,7.30
2023-04-25T21:04:27.234Z,7.13
2023-04-25T21:06:57.236Z,7.06
2023-04-25T21:09:27.015Z,7.06
2023-04-25T21:11:56.816Z,7.04
2023-04-25T21:14:26.975Z,6.85
2023-04-25T21:16:57.127Z,7.03
2023-04-25T21:19:26.963Z,7.03
2023-04-25T21:21:56.839Z,6.93
2023-04-25T21:24:27.290Z,6.93
2023-04-25T21:26:57.283Z,6.76
2023-04-25T21:29:27.473Z,6.68
2023-04-25T21:31:57.350Z,6.71
2023-04-25T21:34:27.478Z,6.88
2023-04-25T21:36:58.242Z,6.70
2023-04-25T21:39:28.689Z,6.72
2023-04-25T21:41:58.563Z,6.72
2023-04-25T21:44:30.211Z,6.59
2023-04-25T21:47:00.051Z,6.63
2023-04-25T21:49:29.717Z,6.60
2023-04-25T21:52:00.147Z,6.61
2023-04-25T21:54:29.923Z,6.48
2023-04-25T21:56:59.770Z,6.48
2023-04-25T21:59:29.654Z,6.34
2023-04-25T22:01:59.603Z,6.38
2023-04-25T22:04:29.552Z,6.36
2023-04-25T22:06:59.664Z,6.35
2023-04-25T22:09:29.908Z,6.37
2023-04-25T22:12:01.324Z,6.25
2023-04-25T22:14:31.614Z,6.17
2023-04-25T22:17:01.709Z,6.14
2023-04-25T22:19:31.592Z,6.07
2023-04-25T22:22:01.410Z,5.97
2023-04-25T22:24:31.579Z,5.89
2023-04-25T22:27:02.430Z,5.85
2023-04-25T22:29:32.863Z,5.83
2023-04-25T22:32:02.702Z,5.85
2023-04-25T22:34:32.363Z,5.85
2023-04-25T22:37:02.135Z,5.81
2023-04-25T22:39:32.015Z,5.82
2023-04-25T22:42:02.521Z,5.84
2023-04-25T22:44:32.754Z,5.64
2023-04-25T22:47:02.497Z,5.64
2023-04-25T22:49:32.835Z,5.70
2023-04-25T22:52:04.216Z,5.51
2023-04-25T22:54:34.054Z,5.39
2023-04-25T22:57:06.902Z,5.46
2023-04-25T22:59:36.752Z,5.30
2023-04-25T23:02:07.719Z,5.31
2023-04-25T23:04:38.049Z,5.32
2023-04-25T23:07:08.292Z,5.26
2023-04-25T23:09:38.129Z,5.24
2023-04-25T23:12:08.356Z,5.23
2023-04-25T23:14:38.457Z,5.23
2023-04-25T23:17:09.145Z,5.22
2023-04-25T23:22:28.422Z,5.25
2023-04-25T23:24:58.428Z,5.27
2023-04-25T23:27:28.264Z,5.01
2023-04-25T23:29:58.244Z,5.27
2023-04-25T23:32:28.311Z,5.23
2023-04-25T23:34:58.284Z,5.18
2023-04-25T23:37:30.017Z,5.21
2023-04-25T23:39:59.895Z,5.08
2023-04-25T23:42:29.868Z,5.01
2023-04-25T23:44:59.736Z,4.91
2023-04-25T23:47:29.893Z,4.91
2023-04-25T23:49:59.488Z,4.99
2023-04-25T23:52:29.490Z,4.90
2023-04-25T23:54:59.480Z,5.04
2023-04-25T23:57:29.317Z,4.88
2023-04-25T23:59:59.306Z,4.71
